Time;durP1;ratioP1;P1;durP2;ratioP2;P2;SDS_P1;SDS_P2;PMS_P1;PMS_P2;Temp;Humidity;BMP_temperature;BMP_pressure;BME280_temperature;BME280_humidity;BME280_pressure;Samples;Min_cycle;Max_cycle;Signal;HPM_P1;HPM_P2
2024/01/07 00:00:45;;;;;;;14.23;11.25;;;-0.40;99.90;;;;;;5074374;28;20205;-65
2024/01/07 00:03:12;;;;;;;16.00;11.32;;;-0.40;99.90;;;;;;5074115;28;20220;-65
2024/01/07 00:05:38;;;;;;;15.13;10.35;;;-0.40;99.90;;;;;;5073326;28;20211;-66
2024/01/07 00:08:06;;;;;;;13.15;11.40;;;-0.40;99.90;;;;;;5073713;28;20212;-65
2024/01/07 00:10:32;;;;;;;13.68;10.55;;;-0.40;99.90;;;;;;5073772;28;20207;-64
2024/01/07 00:13:01;;;;;;;16.92;12.02;;;-0.40;99.90;;;;;;5073872;28;20232;-66
2024/01/07 00:15:27;;;;;;;15.48;10.50;;;-0.40;99.90;;;;;;5073744;28;20624;-65
2024/01/07 00:17:54;;;;;;;13.13;10.10;;;-0.50;99.90;;;;;;5074066;28;20225;-65
2024/01/07 00:20:21;;;;;;;15.10;10.82;;;-0.40;99.90;;;;;;5073864;28;20211;-66
2024/01/07 00:22:48;;;;;;;18.45;12.05;;;-0.50;99.90;;;;;;5073795;28;20220;-66
2024/01/07 00:25:14;;;;;;;13.55;9.70;;;-0.40;99.90;;;;;;5074677;28;20200;-65
2024/01/07 00:27:41;;;;;;;11.18;10.00;;;-0.50;99.90;;;;;;5074983;28;20235;-65
2024/01/07 00:30:10;;;;;;;15.05;10.90;;;-0.50;99.90;;;;;;5077800;28;20205;-67
2024/01/07 00:32:37;;;;;;;16.02;10.45;;;-0.50;99.90;;;;;;5077731;28;20221;-64
2024/01/07 00:35:04;;;;;;;11.90;8.60;;;-0.50;99.90;;;;;;5077866;28;20291;-66
2024/01/07 00:37:31;;;;;;;17.33;11.50;;;-0.50;99.90;;;;;;5077557;28;20716;-66
2024/01/07 00:39:58;;;;;;;15.90;11.18;;;-0.50;99.90;;;;;;5085994;28;20205;-67
2024/01/07 00:42:25;;;;;;;18.45;10.05;;;-0.50;99.90;;;;;;5093301;28;20225;-66
2024/01/07 00:44:51;;;;;;;16.38;11.68;;;-0.50;99.90;;;;;;5094320;28;20747;-66
2024/01/07 00:47:19;;;;;;;12.20;9.23;;;-0.60;99.90;;;;;;5092512;28;20736;-66
2024/01/07 00:49:46;;;;;;;12.80;9.75;;;-0.50;99.90;;;;;;5096440;28;20232;-66
2024/01/07 00:52:13;;;;;;;15.55;10.32;;;-0.60;99.90;;;;;;5096221;28;20319;-66
2024/01/07 00:54:40;;;;;;;15.32;10.48;;;-0.60;99.90;;;;;;5088837;28;20197;-66
2024/01/07 00:57:06;;;;;;;14.73;9.77;;;-0.60;99.90;;;;;;5091944;28;20348;-68
2024/01/07 00:59:33;;;;;;;15.57;9.27;;;-0.60;99.90;;;;;;5094606;28;20264;-66
2024/01/07 01:02:01;;;;;;;14.68;10.38;;;-0.60;99.90;;;;;;5090704;28;20220;-66
2024/01/07 01:04:29;;;;;;;15.35;10.82;;;-0.60;99.90;;;;;;5089555;28;20201;-66
2024/01/07 01:06:56;;;;;;;14.57;10.00;;;-0.60;99.90;;;;;;5076787;28;20207;-66
2024/01/07 01:09:22;;;;;;;14.80;9.85;;;-0.60;99.90;;;;;;5077177;28;20193;-66
2024/01/07 01:11:49;;;;;;;13.77;9.60;;;-0.60;99.90;;;;;;5076591;28;20788;-66
2024/01/07 01:14:16;;;;;;;15.80;11.52;;;-0.60;99.90;;;;;;5077150;28;20250;-66
2024/01/07 01:16:43;;;;;;;12.40;9.88;;;-0.60;99.90;;;;;;5077181;28;20201;-66
2024/01/07 01:19:10;;;;;;;16.02;10.80;;;-0.60;99.90;;;;;;5076966;28;20225;-66
2024/01/07 01:21:38;;;;;;;16.45;11.80;;;-0.60;99.90;;;;;;5076571;28;20242;-66
2024/01/07 01:24:05;;;;;;;18.05;11.95;;;-0.60;99.90;;;;;;5076910;28;20208;-65
2024/01/07 01:26:32;;;;;;;14.02;10.57;;;-0.60;99.90;;;;;;5076748;28;20200;-66
2024/01/07 01:28:58;;;;;;;16.35;10.02;;;-0.60;99.90;;;;;;5076308;28;20193;-66
2024/01/07 01:31:25;;;;;;;13.80;10.90;;;-0.60;99.90;;;;;;5076417;28;20231;-65
2024/01/07 01:33:52;;;;;;;14.68;9.50;;;-0.70;99.90;;;;;;5076632;28;20205;-67
2024/01/07 01:36:19;;;;;;;14.57;10.10;;;-0.60;99.90;;;;;;5076348;28;20201;-66
2024/01/07 01:38:48;;;;;;;13.13;9.13;;;-0.70;99.90;;;;;;5076463;28;20220;-66
2024/01/07 01:41:15;;;;;;;11.68;8.48;;;-0.70;99.90;;;;;;5075981;28;20247;-66
2024/01/07 01:43:42;;;;;;;13.23;8.40;;;-0.70;99.90;;;;;;5076464;28;20266;-66
2024/01/07 01:46:08;;;;;;;15.05;9.63;;;-0.70;99.90;;;;;;5076055;28;20197;-67
2024/01/07 01:48:36;;;;;;;12.50;9.48;;;-0.70;99.90;;;;;;5075721;28;20201;-66
2024/01/07 01:51:04;;;;;;;12.32;7.90;;;-0.70;99.90;;;;;;5075543;28;20296;-66
2024/01/07 01:53:31;;;;;;;12.57;8.80;;;-0.70;99.90;;;;;;5075872;28;20283;-66
2024/01/07 01:56:02;;;;;;;12.60;8.85;;;-0.80;99.90;;;;;;5075832;28;20207;-66
2024/01/07 01:58:30;;;;;;;14.43;9.55;;;-0.70;99.90;;;;;;5075868;28;20208;-66
2024/01/07 02:00:57;;;;;;;13.98;9.25;;;-0.70;99.90;;;;;;5076333;28;20208;-66
2024/01/07 02:03:24;;;;;;;15.73;9.35;;;-0.70;99.90;;;;;;5075986;28;20201;-66
2024/01/07 02:05:51;;;;;;;12.23;8.43;;;-0.70;99.90;;;;;;5076156;28;20208;-67
2024/01/07 02:08:19;;;;;;;13.18;8.07;;;-0.70;99.90;;;;;;5075868;28;20197;-66
2024/01/07 02:10:46;;;;;;;11.75;8.68;;;-0.80;99.90;;;;;;5076799;28;20555;-65
2024/01/07 02:13:14;;;;;;;10.75;8.23;;;-0.80;99.90;;;;;;5076323;28;20203;-66
2024/01/07 02:15:41;;;;;;;13.57;10.23;;;-0.80;99.90;;;;;;5077016;28;20205;-65
2024/01/07 02:18:08;;;;;;;12.82;8.90;;;-0.80;99.90;;;;;;5076821;28;20225;-65
2024/01/07 02:20:35;;;;;;;13.32;8.77;;;-0.90;99.90;;;;;;5076978;28;20207;-66
2024/01/07 02:23:02;;;;;;;14.80;8.93;;;-0.90;99.90;;;;;;5076787;28;20225;-66
2024/01/07 02:25:35;;;;;;;13.00;9.57;;;-0.90;99.90;;;;;;5076564;28;20205;-65
2024/01/07 02:28:02;;;;;;;16.42;10.85;;;-0.90;99.90;;;;;;5076418;28;20212;-65
2024/01/07 02:30:28;;;;;;;12.00;8.00;;;-0.90;99.90;;;;;;5075887;28;20201;-66
2024/01/07 02:32:55;;;;;;;12.57;9.40;;;-0.90;99.90;;;;;;5075344;28;20227;-66
2024/01/07 02:35:22;;;;;;;12.18;9.02;;;-0.80;99.90;;;;;;5075599;28;20219;-64
2024/01/07 02:37:49;;;;;;;10.02;8.07;;;-0.90;99.90;;;;;;5075528;28;20231;-66
2024/01/07 02:40:15;;;;;;;9.02;7.18;;;-0.90;99.90;;;;;;5075127;28;20205;-65
2024/01/07 02:42:44;;;;;;;14.45;10.18;;;-0.90;99.90;;;;;;5075118;28;20235;-65
2024/01/07 02:45:11;;;;;;;10.90;8.77;;;-0.90;99.90;;;;;;5076228;28;20216;-66
2024/01/07 02:47:37;;;;;;;11.40;7.95;;;-0.90;99.90;;;;;;5074699;28;20295;-66
2024/01/07 02:50:05;;;;;;;12.40;9.55;;;-0.90;99.90;;;;;;5074732;28;20197;-66
2024/01/07 02:52:31;;;;;;;10.60;7.65;;;-0.90;99.90;;;;;;5073564;28;20231;-66
2024/01/07 02:55:01;;;;;;;12.07;8.25;;;-1.00;99.90;;;;;;5075281;28;20201;-66
2024/01/07 02:57:28;;;;;;;9.15;7.50;;;-1.00;99.90;;;;;;5075437;28;20254;-65
2024/01/07 02:59:56;;;;;;;11.05;7.75;;;-1.00;99.90;;;;;;5074430;28;20221;-65
2024/01/07 03:02:23;;;;;;;10.18;7.97;;;-1.10;99.90;;;;;;5075375;28;20227;-66
2024/01/07 03:04:49;;;;;;;11.57;7.97;;;-1.10;99.90;;;;;;5074931;28;20197;-66
2024/01/07 03:07:16;;;;;;;11.60;7.68;;;-1.10;99.90;;;;;;5074664;28;20204;-66
2024/01/07 03:09:43;;;;;;;11.75;6.88;;;-1.10;99.90;;;;;;5074370;28;20629;-66
2024/01/07 03:12:10;;;;;;;8.32;6.43;;;-1.10;99.90;;;;;;5074654;28;20610;-65
2024/01/07 03:14:37;;;;;;;9.32;6.50;;;-1.10;99.90;;;;;;5074457;28;20197;-65
2024/01/07 03:17:05;;;;;;;8.13;7.05;;;-1.10;99.90;;;;;;5077514;28;20670;-66
2024/01/07 03:19:32;;;;;;;12.52;8.48;;;-1.10;99.90;;;;;;5076562;28;20229;-66
2024/01/07 03:21:59;;;;;;;10.88;7.47;;;-1.10;99.90;;;;;;5079456;28;20232;-66
2024/01/07 03:24:26;;;;;;;8.40;6.35;;;-1.10;99.90;;;;;;5085239;28;20215;-66
2024/01/07 03:26:53;;;;;;;10.23;7.65;;;-1.10;99.90;;;;;;5084373;28;20197;-66
2024/01/07 03:29:19;;;;;;;10.30;6.43;;;-1.20;99.90;;;;;;5076916;28;20197;-66
2024/01/07 03:31:46;;;;;;;9.30;6.22;;;-1.20;99.90;;;;;;5080423;28;20220;-67
2024/01/07 03:34:14;;;;;;;10.32;5.82;;;-1.20;99.90;;;;;;5082804;28;20274;-66
2024/01/07 03:36:41;;;;;;;10.88;6.30;;;-1.30;99.90;;;;;;5083398;28;20276;-66
2024/01/07 03:39:08;;;;;;;8.80;6.50;;;-1.30;99.90;;;;;;5084236;28;20228;-66
2024/01/07 03:41:35;;;;;;;8.98;6.22;;;-1.30;99.90;;;;;;5085756;28;20225;-66
2024/01/07 03:44:02;;;;;;;10.52;6.53;;;-1.30;99.90;;;;;;5086607;28;20295;-65
2024/01/07 03:46:28;;;;;;;10.20;6.00;;;-1.30;99.90;;;;;;5073876;28;20201;-65
2024/01/07 03:48:55;;;;;;;8.27;6.47;;;-1.30;99.90;;;;;;5073400;28;20197;-65
2024/01/07 03:51:23;;;;;;;7.68;6.20;;;-1.30;99.90;;;;;;5074024;28;20228;-66
2024/01/07 03:53:50;;;;;;;6.95;5.55;;;-1.30;99.90;;;;;;5074267;28;20232;-66
2024/01/07 03:56:17;;;;;;;6.40;4.85;;;-1.30;99.90;;;;;;5074041;28;20201;-66
2024/01/07 03:58:44;;;;;;;7.03;4.85;;;-1.30;99.90;;;;;;5074020;28;20220;-66
2024/01/07 04:01:10;;;;;;;8.00;4.97;;;-1.30;99.90;;;;;;5073468;28;20224;-65
2024/01/07 04:03:39;;;;;;;5.03;4.50;;;-1.30;99.90;;;;;;5073186;28;20211;-65
2024/01/07 04:06:07;;;;;;;8.10;5.38;;;-1.30;99.90;;;;;;5074079;28;20209;-67
2024/01/07 04:08:36;;;;;;;8.18;4.97;;;-1.30;99.90;;;;;;5074703;28;20196;-66
2024/01/07 04:12:54;;;;;;;5.05;4.45;;;-1.30;99.90;;;;;;5133562;27;20635;-66
2024/01/07 04:15:21;;;;;;;5.88;4.38;;;-1.30;99.90;;;;;;5132544;27;20199;-65
2024/01/07 04:17:48;;;;;;;4.80;4.07;;;-1.30;99.90;;;;;;5133975;27;20202;-65
2024/01/07 04:20:15;;;;;;;6.40;4.47;;;-1.30;99.90;;;;;;5134450;27;20669;-66
2024/01/07 04:22:42;;;;;;;5.10;4.50;;;-1.30;99.90;;;;;;5136984;27;20246;-65
2024/01/07 04:25:10;;;;;;;6.00;4.28;;;-1.30;99.90;;;;;;5137135;27;20213;-66
2024/01/07 04:27:37;;;;;;;4.75;3.88;;;-1.30;99.90;;;;;;5133342;27;20195;-67
2024/01/07 04:30:07;;;;;;;7.45;4.25;;;-1.30;99.90;;;;;;5136070;27;20275;-66
2024/01/07 04:32:33;;;;;;;4.93;4.30;;;-1.30;99.90;;;;;;5138181;27;20219;-67
2024/01/07 04:35:00;;;;;;;5.28;3.65;;;-1.40;99.90;;;;;;5138262;27;20195;-66
2024/01/07 04:37:27;;;;;;;5.28;3.78;;;-1.40;99.90;;;;;;5133863;27;20205;-66
2024/01/07 04:39:54;;;;;;;5.13;3.72;;;-1.40;99.90;;;;;;5134554;27;20211;-66
2024/01/07 04:42:21;;;;;;;4.57;3.67;;;-1.40;99.90;;;;;;5142858;27;20227;-66
2024/01/07 04:44:48;;;;;;;4.50;3.95;;;-1.40;99.90;;;;;;5139528;27;20209;-67
2024/01/07 04:47:26;;;;;;;3.70;3.38;;;-1.40;99.90;;;;;;5138615;27;20203;-67
2024/01/07 04:49:53;;;;;;;4.72;3.63;;;-1.30;99.90;;;;;;5138446;27;20251;-66
2024/01/07 04:52:20;;;;;;;6.15;3.80;;;-1.40;99.90;;;;;;5138612;27;20288;-66
2024/01/07 04:54:47;;;;;;;4.15;3.75;;;-1.40;99.90;;;;;;5137517;27;20203;-67
2024/01/07 04:57:14;;;;;;;4.10;3.70;;;-1.40;99.90;;;;;;5137501;27;20570;-67
2024/01/07 04:59:41;;;;;;;6.85;4.13;;;-1.40;99.90;;;;;;5137594;27;20199;-67
2024/01/07 05:02:08;;;;;;;4.28;3.63;;;-1.40;99.90;;;;;;5139669;27;20243;-67
2024/01/07 05:04:36;;;;;;;4.78;3.38;;;-1.40;99.90;;;;;;5138982;27;20206;-67
2024/01/07 05:07:04;;;;;;;4.78;3.90;;;-1.40;99.90;;;;;;5140711;27;20203;-67
2024/01/07 05:09:30;;;;;;;7.13;4.30;;;-1.40;99.90;;;;;;5140355;27;20199;-67
2024/01/07 05:11:57;;;;;;;4.40;3.70;;;-1.40;99.90;;;;;;5138516;27;20307;-67
2024/01/07 05:14:24;;;;;;;3.58;3.05;;;-1.40;99.90;;;;;;5139048;27;20203;-68
2024/01/07 05:16:51;;;;;;;5.85;3.67;;;-1.40;99.90;;;;;;5136440;27;20203;-67
2024/01/07 05:19:18;;;;;;;5.95;3.45;;;-1.40;99.90;;;;;;5135090;27;20210;-68
2024/01/07 05:21:46;;;;;;;5.80;3.75;;;-1.40;99.90;;;;;;5134838;27;20229;-66
2024/01/07 05:24:13;;;;;;;5.18;3.20;;;-1.40;99.90;;;;;;5120632;27;20572;-65
2024/01/07 05:26:40;;;;;;;4.07;3.55;;;-1.40;99.90;;;;;;5121486;28;20200;-67
2024/01/07 05:29:07;;;;;;;5.85;4.10;;;-1.40;99.90;;;;;;5121219;27;20207;-67
2024/01/07 05:31:32;;;;;;;7.50;3.53;;;-1.40;99.90;;;;;;5121436;28;20224;-66
2024/01/07 05:33:59;;;;;;;3.70;3.30;;;-1.40;99.90;;;;;;5120433;28;20204;-66
2024/01/07 05:36:26;;;;;;;3.20;2.72;;;-1.40;99.90;;;;;;5118860;27;20681;-66
2024/01/07 05:38:54;;;;;;;5.25;3.90;;;-1.40;99.90;;;;;;5119553;28;20200;-66
2024/01/07 05:41:21;;;;;;;5.97;4.35;;;-1.40;99.90;;;;;;5118878;28;20226;-65
2024/01/07 05:43:48;;;;;;;4.53;2.92;;;-1.40;99.90;;;;;;5119094;28;20200;-67
2024/01/07 05:46:15;;;;;;;6.97;3.65;;;-1.40;99.90;;;;;;5121404;28;20211;-66
2024/01/07 05:48:45;;;;;;;3.65;3.35;;;-1.50;99.90;;;;;;5124146;28;20206;-67
2024/01/07 05:51:13;;;;;;;3.75;3.20;;;-1.50;99.90;;;;;;5123850;28;20227;-66
2024/01/07 05:53:40;;;;;;;3.42;3.13;;;-1.50;99.90;;;;;;5123982;28;20200;-67
2024/01/07 05:56:08;;;;;;;5.72;3.42;;;-1.50;99.90;;;;;;5125255;28;20200;-67
2024/01/07 05:58:35;;;;;;;5.00;3.85;;;-1.50;99.90;;;;;;5123170;28;20282;-67
2024/01/07 06:01:02;;;;;;;4.03;3.58;;;-1.50;99.90;;;;;;5121561;28;20673;-66
2024/01/07 06:03:29;;;;;;;3.60;3.30;;;-1.50;99.90;;;;;;5128045;28;20299;-66
2024/01/07 06:05:56;;;;;;;5.85;3.38;;;-1.50;99.90;;;;;;5120756;28;20204;-67
2024/01/07 06:08:23;;;;;;;3.97;3.05;;;-1.60;99.90;;;;;;5120984;28;20206;-67
2024/01/07 06:10:50;;;;;;;3.90;3.10;;;-1.60;99.90;;;;;;5127994;28;20286;-67
2024/01/07 06:13:18;;;;;;;3.80;2.63;;;-1.70;99.90;;;;;;5121405;28;20230;-66
2024/01/07 06:15:45;;;;;;;5.00;3.00;;;-1.70;99.90;;;;;;5118329;27;20210;-66
2024/01/07 06:18:12;;;;;;;7.82;3.30;;;-1.70;99.90;;;;;;5117109;28;20204;-66
2024/01/07 06:20:39;;;;;;;3.35;3.05;;;-1.80;99.90;;;;;;5115750;28;20210;-66
2024/01/07 06:23:06;;;;;;;3.33;3.03;;;-1.80;99.90;;;;;;5116110;28;20216;-66
2024/01/07 06:25:33;;;;;;;3.33;3.03;;;-1.80;99.90;;;;;;5116561;28;20206;-67
2024/01/07 06:27:59;;;;;;;5.40;3.05;;;-1.80;99.90;;;;;;5116331;28;20737;-64
2024/01/07 06:30:27;;;;;;;4.78;2.50;;;-1.80;99.90;;;;;;5116174;28;20582;-66
2024/01/07 06:32:54;;;;;;;3.75;2.75;;;-1.90;99.90;;;;;;5116107;28;20223;-63
2024/01/07 06:35:21;;;;;;;3.40;2.67;;;-1.90;99.90;;;;;;5114566;28;20665;-65
2024/01/07 06:37:48;;;;;;;4.03;3.45;;;-2.00;99.90;;;;;;5115335;28;20233;-65
2024/01/07 06:40:15;;;;;;;2.80;2.40;;;-2.00;99.90;;;;;;5115595;28;20202;-66
2024/01/07 06:42:43;;;;;;;3.53;3.00;;;-2.00;99.90;;;;;;5115358;28;20220;-64
2024/01/07 06:45:10;;;;;;;4.53;2.95;;;-2.00;99.90;;;;;;5115005;28;20200;-65
2024/01/07 06:47:38;;;;;;;3.42;2.92;;;-2.00;99.90;;;;;;5115102;28;20249;-66
2024/01/07 06:50:06;;;;;;;4.18;2.92;;;-2.00;99.90;;;;;;5115259;28;20199;-65
2024/01/07 06:52:33;;;;;;;5.88;3.40;;;-2.00;99.90;;;;;;5115094;28;20216;-65
2024/01/07 06:55:00;;;;;;;3.08;2.58;;;-2.00;99.90;;;;;;5115642;28;20294;-65
2024/01/07 06:57:27;;;;;;;4.22;3.55;;;-2.00;99.90;;;;;;5118873;28;20704;-65
2024/01/07 06:59:54;;;;;;;3.80;2.85;;;-2.10;99.90;;;;;;5121162;28;20210;-65
2024/01/07 07:02:22;;;;;;;5.28;3.58;;;-2.10;99.90;;;;;;5125824;28;20284;-63
2024/01/07 07:04:51;;;;;;;4.78;3.00;;;-2.10;99.90;;;;;;5130100;28;20207;-65
2024/01/07 07:07:18;;;;;;;6.90;3.53;;;-2.20;99.90;;;;;;5131290;28;20203;-65
2024/01/07 07:09:45;;;;;;;4.15;2.80;;;-2.20;99.90;;;;;;5131205;28;20211;-65
2024/01/07 07:12:13;;;;;;;3.65;2.85;;;-2.20;99.90;;;;;;5123341;28;20234;-64
2024/01/07 07:14:40;;;;;;;4.15;3.10;;;-2.20;99.90;;;;;;5118816;28;20764;-64
2024/01/07 07:17:07;;;;;;;5.40;3.20;;;-2.30;99.90;;;;;;5114978;28;20249;-63
2024/01/07 07:19:34;;;;;;;5.85;3.35;;;-2.30;99.90;;;;;;5114573;28;20235;-63
2024/01/07 07:22:02;;;;;;;3.92;3.35;;;-2.20;99.90;;;;;;5115181;28;20224;-63
2024/01/07 07:24:29;;;;;;;3.95;3.45;;;-2.30;99.90;;;;;;5118802;28;20213;-63
2024/01/07 07:26:56;;;;;;;4.60;3.03;;;-2.30;99.90;;;;;;5120066;28;20210;-64
2024/01/07 07:29:22;;;;;;;6.07;4.03;;;-2.30;99.90;;;;;;5118180;28;20239;-63
2024/01/07 07:31:49;;;;;;;4.95;3.60;;;-2.30;99.90;;;;;;5118785;28;20219;-64
2024/01/07 07:34:16;;;;;;;6.13;4.13;;;-2.30;99.90;;;;;;5123025;28;20195;-64
2024/01/07 07:36:44;;;;;;;5.45;4.38;;;-2.30;99.90;;;;;;5123791;28;20209;-63
2024/01/07 07:39:14;;;;;;;4.45;4.05;;;-2.30;99.90;;;;;;5122828;28;20226;-64
2024/01/07 07:41:40;;;;;;;4.72;4.05;;;-2.30;99.90;;;;;;5117872;28;20234;-63
2024/01/07 07:44:07;;;;;;;5.97;4.05;;;-2.30;99.90;;;;;;5115637;28;20573;-63
2024/01/07 07:46:34;;;;;;;6.15;4.30;;;-2.20;99.90;;;;;;5115509;28;20200;-63
2024/01/07 07:49:02;;;;;;;5.70;4.65;;;-2.20;99.90;;;;;;5115580;28;20199;-63
2024/01/07 07:51:28;;;;;;;4.40;3.88;;;-2.20;99.90;;;;;;5114035;28;20231;-64
2024/01/07 07:53:54;;;;;;;4.20;3.77;;;-2.20;99.90;;;;;;5114763;28;20226;-62
2024/01/07 07:56:23;;;;;;;5.35;4.05;;;-2.10;99.90;;;;;;5114723;28;20809;-63
2024/01/07 07:58:49;;;;;;;5.45;4.00;;;-2.10;99.90;;;;;;5114760;28;20200;-63
2024/01/07 08:01:18;;;;;;;3.92;2.95;;;-2.10;99.90;;;;;;5114520;28;20216;-64
2024/01/07 08:03:45;;;;;;;4.53;3.53;;;-2.10;99.90;;;;;;5115204;28;20283;-64
2024/01/07 08:06:11;;;;;;;8.07;4.45;;;-2.00;99.90;;;;;;5114449;28;20208;-64
2024/01/07 08:08:38;;;;;;;5.32;3.65;;;-2.00;99.90;;;;;;5114452;28;20677;-63
2024/01/07 08:11:07;;;;;;;5.68;4.20;;;-2.00;99.90;;;;;;5115386;28;20208;-64
2024/01/07 08:13:38;;;;;;;5.22;3.95;;;-2.00;99.90;;;;;;5114193;28;20227;-64
2024/01/07 08:16:06;;;;;;;4.00;3.70;;;-2.00;99.90;;;;;;5114771;28;20194;-64
2024/01/07 08:18:32;;;;;;;4.60;4.10;;;-2.00;99.90;;;;;;5114937;28;20200;-64
2024/01/07 08:21:00;;;;;;;6.10;3.70;;;-2.00;99.90;;;;;;5114044;28;20679;-64
2024/01/07 08:23:27;;;;;;;4.80;3.90;;;-1.90;99.90;;;;;;5114007;28;20290;-63
2024/01/07 08:25:54;;;;;;;6.50;4.13;;;-1.90;99.90;;;;;;5114405;28;20204;-64
2024/01/07 08:28:21;;;;;;;6.28;4.43;;;-1.90;99.90;;;;;;5113720;28;20203;-65
2024/01/07 08:30:51;;;;;;;4.63;3.55;;;-1.90;99.90;;;;;;5114131;28;20294;-64
2024/01/07 08:33:18;;;;;;;5.40;4.30;;;-1.90;99.90;;;;;;5114219;28;20223;-64
2024/01/07 08:35:45;;;;;;;6.30;4.07;;;-1.80;99.90;;;;;;5114123;28;20734;-65
2024/01/07 08:38:12;;;;;;;4.10;3.00;;;-1.80;99.90;;;;;;5114029;28;20294;-63
2024/01/07 08:40:40;;;;;;;5.68;4.07;;;-1.70;99.90;;;;;;5114250;28;20226;-64
2024/01/07 08:43:06;;;;;;;6.63;3.90;;;-1.70;99.90;;;;;;5113906;28;20311;-63
2024/01/07 08:45:33;;;;;;;4.88;3.17;;;-1.70;99.90;;;;;;5114139;28;20204;-65
2024/01/07 08:48:02;;;;;;;5.13;4.13;;;-1.70;99.90;;;;;;5113925;28;20211;-64
2024/01/07 08:50:29;;;;;;;4.18;3.17;;;-1.70;99.90;;;;;;5114133;28;20210;-64
2024/01/07 08:52:56;;;;;;;4.35;3.95;;;-1.70;99.90;;;;;;5114357;28;20277;-64
2024/01/07 08:55:23;;;;;;;6.15;4.63;;;-1.60;99.90;;;;;;5114230;28;20215;-65
2024/01/07 08:57:51;;;;;;;3.88;3.35;;;-1.60;99.90;;;;;;5114498;28;20208;-65
2024/01/07 09:00:19;;;;;;;4.65;3.83;;;-1.60;99.90;;;;;;5118440;28;20265;-64
2024/01/07 09:02:46;;;;;;;5.30;3.45;;;-1.60;99.90;;;;;;5117921;28;20566;-64
2024/01/07 09:05:14;;;;;;;3.88;2.85;;;-1.50;99.90;;;;;;5117671;28;20207;-64
2024/01/07 09:07:41;;;;;;;4.40;3.58;;;-1.50;99.90;;;;;;5117577;28;20681;-62
2024/01/07 09:10:10;;;;;;;4.35;3.10;;;-1.50;99.90;;;;;;5117725;28;20206;-64
2024/01/07 09:12:37;;;;;;;4.35;3.15;;;-1.50;99.90;;;;;;5117015;28;20277;-65
2024/01/07 09:15:07;;;;;;;5.63;3.10;;;-1.40;99.90;;;;;;5117864;28;20207;-64
2024/01/07 09:17:35;;;;;;;3.40;3.03;;;-1.40;99.90;;;;;;5117596;28;20273;-64
2024/01/07 09:20:04;;;;;;;3.33;3.03;;;-1.40;99.90;;;;;;5118643;28;20210;-64
2024/01/07 09:22:32;;;;;;;5.80;3.10;;;-1.40;99.90;;;;;;5116894;28;20217;-64
2024/01/07 09:24:59;;;;;;;5.88;3.55;;;-1.30;99.90;;;;;;5116935;28;20208;-64
2024/01/07 09:27:26;;;;;;;3.13;2.92;;;-1.30;99.90;;;;;;5117067;28;20286;-66
2024/01/07 09:29:52;;;;;;;4.28;3.28;;;-1.20;99.90;;;;;;5116856;28;20202;-64
2024/01/07 09:32:19;;;;;;;4.68;3.58;;;-1.10;99.90;;;;;;5116246;28;20588;-65
2024/01/07 09:34:46;;;;;;;3.30;3.00;;;-1.10;99.90;;;;;;5116287;27;20665;-63
2024/01/07 09:37:13;;;;;;;7.68;3.30;;;-1.10;99.90;;;;;;5117187;28;20214;-64
2024/01/07 09:39:42;;;;;;;5.32;3.42;;;-1.10;99.90;;;;;;5116600;28;20204;-65
2024/01/07 09:42:13;;;;;;;4.53;4.07;;;-1.10;99.90;;;;;;5116666;28;20608;-64
2024/01/07 09:44:40;;;;;;;3.55;3.25;;;-1.00;99.90;;;;;;5117806;28;20208;-65
2024/01/07 09:47:11;;;;;;;4.32;3.42;;;-0.90;99.90;;;;;;5117528;28;20203;-64
2024/01/07 09:49:38;;;;;;;5.68;3.42;;;-0.90;99.90;;;;;;5116681;28;20569;-64
2024/01/07 09:52:06;;;;;;;4.15;3.35;;;-0.90;99.90;;;;;;5116706;28;20597;-64
2024/01/07 09:54:33;;;;;;;3.30;2.70;;;-0.90;99.90;;;;;;5116550;28;20258;-64
2024/01/07 09:57:03;;;;;;;3.38;2.85;;;-0.90;99.90;;;;;;5116721;28;20569;-65
2024/01/07 09:59:30;;;;;;;3.05;2.45;;;-0.90;99.90;;;;;;5116974;28;20232;-64
2024/01/07 10:01:58;;;;;;;5.03;3.30;;;-1.00;99.90;;;;;;5117084;28;20222;-64
2024/01/07 10:04:25;;;;;;;3.75;3.42;;;-1.00;99.90;;;;;;5116906;28;20196;-65
2024/01/07 10:06:53;;;;;;;4.60;3.03;;;-1.00;99.90;;;;;;5116607;28;20205;-65
2024/01/07 10:09:23;;;;;;;4.15;3.00;;;-1.00;99.90;;;;;;5116548;28;20206;-65
2024/01/07 10:11:50;;;;;;;3.35;3.05;;;-0.90;99.90;;;;;;5115597;28;20284;-65
2024/01/07 10:14:19;;;;;;;7.00;4.57;;;-0.80;99.90;;;;;;5116124;28;20220;-65
2024/01/07 10:16:46;;;;;;;6.88;3.20;;;-0.80;99.90;;;;;;5115833;28;20287;-65
2024/01/07 10:19:20;;;;;;;4.88;3.38;;;-0.80;99.90;;;;;;5115928;28;20207;-65
2024/01/07 10:21:47;;;;;;;3.80;2.95;;;-0.70;99.90;;;;;;5115988;28;20307;-65
2024/01/07 10:24:14;;;;;;;3.15;2.53;;;-0.70;99.90;;;;;;5116590;27;20217;-65
2024/01/07 10:26:42;;;;;;;5.97;3.25;;;-0.70;99.90;;;;;;5117654;28;20206;-62
2024/01/07 10:29:09;;;;;;;4.25;3.13;;;-0.70;99.90;;;;;;5117706;28;20200;-65
2024/01/07 10:31:39;;;;;;;6.22;3.17;;;-0.70;99.90;;;;;;5117316;28;20224;-64
2024/01/07 10:34:09;;;;;;;3.70;3.03;;;-0.70;99.90;;;;;;5117292;28;20206;-65
2024/01/07 10:36:37;;;;;;;4.07;3.35;;;-0.70;99.90;;;;;;5116594;28;20211;-66
2024/01/07 10:39:04;;;;;;;5.30;3.45;;;-0.60;99.90;;;;;;5117514;28;20199;-63
2024/01/07 10:41:32;;;;;;;3.95;3.55;;;-0.60;99.90;;;;;;5119711;27;20245;-65
2024/01/07 10:43:59;;;;;;;6.35;3.58;;;-0.60;99.90;;;;;;5124156;28;20234;-65
2024/01/07 10:46:30;;;;;;;3.70;3.30;;;-0.50;99.90;;;;;;5118100;28;20677;-65
2024/01/07 10:49:01;;;;;;;3.28;2.92;;;-0.50;99.90;;;;;;5116887;28;20554;-65
2024/01/07 10:51:30;;;;;;;7.30;4.43;;;-0.50;99.90;;;;;;5116949;28;20247;-65
2024/01/07 10:53:57;;;;;;;3.92;3.53;;;-0.60;99.90;;;;;;5116981;28;20212;-65
2024/01/07 10:56:25;;;;;;;4.88;3.55;;;-0.60;99.90;;;;;;5118916;28;20199;-65
2024/01/07 10:58:54;;;;;;;5.80;3.85;;;-0.60;99.90;;;;;;5118890;28;20267;-65
2024/01/07 11:01:21;;;;;;;5.00;3.67;;;-0.60;99.90;;;;;;5120689;28;20223;-65
2024/01/07 11:03:58;;;;;;;5.60;3.50;;;-0.60;99.90;;;;;;5124543;28;20564;-65
2024/01/07 11:06:34;;;;;;;4.95;3.45;;;-0.60;99.90;;;;;;5117996;28;20215;-65
2024/01/07 11:09:13;;;;;;;3.90;3.58;;;-0.60;99.90;;;;;;5115007;28;20190;-64
2024/01/07 11:11:42;;;;;;;4.88;3.40;;;-0.60;99.90;;;;;;5114728;28;20242;-67
2024/01/07 11:14:37;;;;;;;7.60;3.35;;;-0.60;99.90;;;;;;5115506;28;20220;-65
2024/01/07 11:17:04;;;;;;;4.93;3.75;;;-0.60;99.90;;;;;;5115376;28;20188;-66
2024/01/07 11:19:31;;;;;;;4.70;3.60;;;-0.60;99.90;;;;;;5115317;28;20604;-66
2024/01/07 11:22:24;;;;;;;5.60;3.95;;;-0.60;99.90;;;;;;5115563;28;20219;-65
2024/01/07 11:24:51;;;;;;;4.43;3.85;;;-0.60;99.90;;;;;;5116510;28;20221;-64
2024/01/07 11:27:18;;;;;;;3.80;3.33;;;-0.60;99.90;;;;;;5115579;28;20210;-66
2024/01/07 11:29:53;;;;;;;3.78;3.35;;;-0.60;99.90;;;;;;5116128;28;20573;-65
2024/01/07 11:32:20;;;;;;;5.15;3.55;;;-0.60;99.90;;;;;;5115214;28;20229;-66
2024/01/07 11:34:49;;;;;;;9.82;3.58;;;-0.50;99.90;;;;;;5115512;28;20219;-66
2024/01/07 11:37:16;;;;;;;4.28;3.60;;;-0.40;99.90;;;;;;5115427;28;20206;-66
2024/01/07 11:39:46;;;;;;;5.25;3.50;;;-0.40;99.90;;;;;;5115383;28;20623;-67
2024/01/07 11:42:13;;;;;;;3.83;3.30;;;-0.40;99.90;;;;;;5115185;28;20258;-66
2024/01/07 11:44:47;;;;;;;4.18;3.15;;;-0.40;99.90;;;;;;5115407;28;20207;-72
2024/01/07 11:47:14;;;;;;;4.57;3.65;;;-0.40;99.90;;;;;;5115950;28;20231;-67
2024/01/07 11:49:41;;;;;;;6.68;4.28;;;-0.40;99.90;;;;;;5114890;28;20585;-66
2024/01/07 11:52:09;;;;;;;5.63;3.10;;;-0.40;99.90;;;;;;5114762;28;20226;-66
2024/01/07 11:54:35;;;;;;;3.55;3.25;;;-0.30;99.90;;;;;;5114312;28;20314;-66
2024/01/07 11:57:04;;;;;;;3.75;3.10;;;-0.30;99.90;;;;;;5115010;28;20224;-66
2024/01/07 11:59:34;;;;;;;4.25;3.10;;;-0.30;99.90;;;;;;5114638;28;20204;-66
2024/01/07 12:02:02;;;;;;;5.10;3.70;;;-0.30;99.90;;;;;;5115561;28;20307;-66
2024/01/07 12:04:29;;;;;;;4.80;2.95;;;-0.30;99.90;;;;;;5114331;28;20204;-68
2024/01/07 12:06:55;;;;;;;5.32;3.30;;;-0.30;99.90;;;;;;5114236;28;20256;-67
2024/01/07 12:09:22;;;;;;;8.95;4.10;;;-0.30;99.90;;;;;;5114304;28;20282;-66
2024/01/07 12:11:49;;;;;;;4.30;3.50;;;-0.30;99.90;;;;;;5114082;28;20241;-66
2024/01/07 12:14:19;;;;;;;3.45;3.15;;;-0.30;99.90;;;;;;5114045;28;20310;-67
2024/01/07 12:16:46;;;;;;;4.78;3.33;;;-0.30;99.90;;;;;;5114029;28;20665;-67
2024/01/07 12:19:13;;;;;;;4.78;3.50;;;-0.20;99.90;;;;;;5114911;28;20285;-65
2024/01/07 12:21:41;;;;;;;8.45;3.53;;;-0.20;99.90;;;;;;5113935;28;20725;-67
2024/01/07 12:24:08;;;;;;;3.58;2.92;;;-0.20;99.90;;;;;;5115222;28;20195;-67
2024/01/07 12:26:35;;;;;;;6.75;3.75;;;-0.10;99.90;;;;;;5114762;28;20209;-67
2024/01/07 12:29:03;;;;;;;4.60;3.75;;;-0.10;99.90;;;;;;5114195;28;20203;-67
2024/01/07 12:31:32;;;;;;;5.82;3.35;;;-0.10;99.90;;;;;;5114057;28;20227;-67
2024/01/07 12:33:59;;;;;;;4.85;3.75;;;-0.10;99.90;;;;;;5116819;28;20212;-67
2024/01/07 12:36:26;;;;;;;4.97;4.25;;;0.00;99.90;;;;;;5118384;28;20214;-67
2024/01/07 12:38:54;;;;;;;5.57;4.30;;;0.00;99.90;;;;;;5118094;28;20199;-67
2024/01/07 12:41:22;;;;;;;4.97;4.40;;;0.10;99.90;;;;;;5117052;28;20219;-67
2024/01/07 12:43:49;;;;;;;4.28;3.45;;;0.10;99.90;;;;;;5117377;28;20199;-67
2024/01/07 12:46:16;;;;;;;4.05;3.65;;;0.20;99.90;;;;;;5118188;28;20199;-67